Guadeloupe : La 68e édition du Tour Cycliste International

Alain Paulmin Lundi 06 août 2018

3ième étape : Gourbeyre / Goyave 155 km, départ à 10h00, Mickaël Guichard de la Team IMMO Nicolas Roux partira avec la tunique jaune. Belle victoire de Bruno Langlois d'Air Abtilles Barbados.

Particularités :
Hermitage 5 km GPM2 et Cocoyer 63,700 km GPM3


PORT DES MAILLOTS POUR LA PROCHAINE ETAPE
A l'issue de l'étape n° 2 (Tronçon 2) Résultats officiels


Jaune 5 GUICHARD Mickael TEAM PRO IMMO NICOLAS ROUX Général individuel au temps REGION GUADELOUPE
Bleu 25 RAMOTHE Cedric KARUKERA ASSAINISSEMENT PDL Général individuel aux points CONSEIL DEPARTEMENTAL DE LA GU
Pois rouges 62 MILAN Diego INTEJA DCTG énéral Meilleur Grimpeur CORSAIR International
Blanc 11 GRANIGAN Noah CCB FOUNDATION - SICLERI XG énéral Meilleur Jeune CAISSE D’EPARGNE
Fushia 125 SALINAS DUQUE Jhonathan UNI SPORT LAMENTINOISG énéral Combiné GUADELOUPE POLE CARAIBES
Orange 2 THOMASSON Nicolas TEAM PRO IMMO NICOLAS ROUX Général Points Chauds EDF AGIR PLUS
Vert 146 CARENE Boris TEAM CCDG énéral Combativité AIR ANTILLES

CLASSEMENT DE L'ETAPE
Résultats officiels Etape n°3 - GOURBEYRE - GOYAVEL undi 06 Août 2018
Nombre de km : 155,700
43,200 km/heureM oyenne du vainqueur :


245 10002226940 LANGLOIS Bruno AIR ANTILLES BARBADOS 03:36:16:001
11 10009353612 X GRANIGAN Noah CCB FOUNDATION - SICLERI 03:36:42:00 00:00:26:002
62 10003120047 MILAN Diego INTEJA DCT 03:36:42:00 00:00:26:003
61 10054655945 MANCEBO Francisco INTEJA DCT 03:36:44:00 00:00:28:004
236 10006527676 ROSEAU Willy SELECTION MARTINIQUE 03:36:46:00 00:00:30:005
3 10009571052 BONNET Pierre TEAM PRO IMMO NICOLAS ROUX 03:36:46:00 00:00:30:006
133 10026612639 KWIATKOWSKI Grzegorz Jan UNION VELOCIPEDIQUE DE MARI 03:36:46:00 00:00:30:007
4 10012064659 ALMEIDA Pierre TEAM PRO IMMO NICOLAS ROUX 03:36:46:00 00:00:30:008
221 10002879870 NAVA Jhon GWADA BIKERS 118 03:36:46:00 00:00:30:009
263 10025835326 LEMLER Tony BOURG EN BRESS 03:36:46:00 00:00:30:001 0
124 10081045605 RODRIGUEZ GALINDO Mick UNI SPORT LAMENTINOIS 03:36:46:00 00:00:30:001 1
5 10010100007 GUICHARD Mickael TEAM PRO IMMO NICOLAS ROUX 03:37:00:00 00:00:44:001 2
111 10016211108 X GERAN Ronald CSCA PROPRETE 2000 03:37:00:00 00:00:44:001 3
25 10006566274 RAMOTHE Cedric KARUKERA ASSAINISSEMENT PD 03:37:00:00 00:00:44:001 4
125 10027697524 SALINAS DUQUE Jhonathan UNI SPORT LAMENTINOIS 03:37:00:00 00:00:44:001 5
91 10007902551 LANCLUME Jules VELO DU CENTRE ET DE LA CAR 03:37:00:00 00:00:44:001 6
233 10014076603 RAGOT Thierry SELECTION MARTINIQUE 03:37:00:00 00:00:44:001 7
123 10014075690 ERRIN Grégory UNI SPORT LAMENTINOIS 03:37:00:00 00:00:44:001 8
252 10014542304 KRUSCHEWSKI Fabian TEAM EMBRACE THE WORLD 03:37:00:00 00:00:44:001 9
126 10014665572 PRUNEAU Jordy UNI SPORT LAMENTINOIS 03:37:00:00 00:00:44:002 0
261 10015726411 X MOINE Quentin BOURG EN BRESS 03:37:00:00 00:00:44:002 1
2 10011940781 THOMASSON Nicolas TEAM PRO IMMO NICOLAS ROUX 03:37:00:00 00:00:44:002 2
65 10011231873 GUERRERO BONITA Pablo INTEJA DCT 03:37:00:00 00:00:44:002 3
146 10076908856 CARENE Boris TEAM CCD 03:37:00:00 00:00:44:002 4
14 10015484214 COLLINS Patrick CCB FOUNDATION - SICLERI 03:37:00:00 00:00:44:002 5
234 10010163863 SYLVESTRE Yolan SELECTION MARTINIQUE 03:37:00:00 00:00:44:002 6
232 10015342754 STANISLAS Mickaël SELECTION MARTINIQUE 03:37:00:00 00:00:44:002 7

182 10025073773 THEOPHILE Laury JEUNESSE CYCLISTE DES ABYM 03:37:00:00 00:00:44:002 8
162 10074497701 VARGAS Freddy TEAM NICOLAS DUBOIS - VCC 03:37:00:00 00:00:44:002 9
142 10064540548 MARTINEZ URENA Jorge Luis TEAM CCD 03:37:00:00 00:00:44:003 0
115 10027669333 X PHAETON Collins CSCA PROPRETE 2000 03:37:00:00 00:00:44:003 1
13 10064521754 X HUMPHREYS Thomas CCB FOUNDATION - SICLERI 03:37:00:00 00:00:44:003 2
35 10027319123 X DURO Nicolas VELO CLUB SAINTANNAIS 03:37:00:00 00:00:44:003 3
231 10007446550 EUSTACHE Cédric SELECTION MARTINIQUE 03:37:00:00 00:00:44:003 4
22 10015343663 X LAVIOLETTE Loic KARUKERA ASSAINISSEMENT PD 03:37:00:00 00:00:44:003 5
1 10005890510 FOURNET FAYARD Sebastien TEAM PRO IMMO NICOLAS ROUX 03:37:00:00 00:00:44:003 6
94 10080990536 MEDINA Raphael VELO DU CENTRE ET DE LA CAR 03:37:00:00 00:00:44:003 7
161 10005566770 SABLON Luis TEAM NICOLAS DUBOIS - VCC 03:37:00:00 00:00:44:003 8
204 10010167604 PARRA SUAREZ Hernan Dario VELO CLUB DE GRAND CASE 03:37:00:00 00:00:44:003 9
63 10002689308 SARABIA Ignacio INTEJA DCT 03:37:00:00 00:00:44:004 0
223 10015344572 KARIOUA Kévin GWADA BIKERS 118 03:37:00:00 00:00:44:004 1
32 10013166318 DURO Kelian VELO CLUB SAINTANNAIS 03:37:00:00 00:00:44:004 2
33 10010164065 NACTO Jordan VELO CLUB SAINTANNAIS 03:37:00:00 00:00:44:004 3
175 10015343360 LOCATIN CEDRIC EXCELSIOR 03:37:00:00 00:00:44:004 4
51 10007531729 BAROLIN Keran UNION VELOCIPEDIQUE DU NORD 03:37:00:00 00:00:44:004 5
52 10012700314 LEGRAND Carl UNION VELOCIPEDIQUE DU NORD 03:37:00:00 00:00:44:004 6
21 10014665471 LUTIN Larry KARUKERA ASSAINISSEMENT PD 03:37:00:00 00:00:44:004 7
23 10016210300 X MAGDELEINE Melvin KARUKERA ASSAINISSEMENT PD 03:37:00:00 00:00:44:004 8
176 10004666084 THEOBALD Frédéric EXCELSIOR 03:37:00:00 00:00:44:004 9
202 10002250683 TURPIN Ludovic VELO CLUB DE GRAND CASE 03:37:00:00 00:00:44:005 0
222 10011791039 FUENTES Yorman GWADA BIKERS 118 03:37:00:00 00:00:44:005 1
26 10014666279 VINETOT Romain KARUKERA ASSAINISSEMENT PD 03:37:00:00 00:00:44:005 2
122 10065631392 CLARICO Mickael UNI SPORT LAMENTINOIS 03:37:00:00 00:00:44:005 3
171 10012701526 BLONDIN Grégory EXCELSIOR 03:37:00:00 00:00:44:005 4
264 10015290315 X JASSERAND Valentin BOURG EN BRESS 03:37:00:00 00:00:44:005 5
116 10073678049 ROUSSEAU Giovanny CSCA PROPRETE 2000 03:37:00:00 00:00:44:005 6
144 10010983212 DIAZ ESPITIA José Léonel TEAM CCD 03:37:00:00 00:00:44:005 7
141 10013164496 CHEVALIER MARONI Damien TEAM CCD 03:37:00:00 00:00:44:005 8
201 10007366122 CURIER Olivier VELO CLUB DE GRAND CASE 03:37:00:00 00:00:44:005 9
203 10042724844 RIVERA GUERRERO Ever Alexander VELO CLUB DE GRAND CASE 03:37:00:00 00:00:44:006 0
164 10006566375 CORNELIE Fabrice TEAM NICOLAS DUBOIS - VCC 03:37:00:00 00:00:44:006 1
193 10027662562 LAROCHELLE Stephane USR VELO STPA 03:37:00:00 00:00:44:006 2
6 10014768232 CHASSAGNE Thomas TEAM PRO IMMO NICOLAS ROUX 03:37:00:00 00:00:44:006 3
181 10005551414 LANDRE Teddy JEUNESSE CYCLISTE DES ABYM 03:37:00:00 00:00:44:006 4
112 10014075791 JUDITH Marvin CSCA PROPRETE 2000 03:37:21:00 00:01:05:006 5
145 10081059446 SANCHEZ ANZOLA Edwin TEAM CCD 03:38:55:00 00:02:39:006 6
24 10014666077 JOACHIM Steevy KARUKERA ASSAINISSEMENT PD 03:40:47:00 00:04:31:006 7
173 10016210195 X BORDEE Gaël EXCELSIOR 03:41:59:00 00:05:43:006 8
191 10012045865 ALIDOR Adrien USR VELO STPA 03:41:59:00 00:05:43:006 9
185 10016209690 X LOUISOR Alrick JEUNESSE CYCLISTE DES ABYM 03:45:40:00 00:09:24:007 0
192 10014075892 TARANNE Teddy USR VELO STPA 03:49:00:00 00:12:44:007 1
95 10016209791 X LEOGANE Feliscyo VELO DU CENTRE ET DE LA CAR 03:50:26:00 00:14:10:007 2
184 10016210906 X DABRION Rogan JEUNESSE CYCLISTE DES ABYM 03:50:26:00 00:14:10:007 3
151 10052756260 SUARES Gilles ASSOCIATION CYCLISTE DU LEV 03:50:26:00 00:14:10:007 4
165 10026332652 X GENE Meving TEAM NICOLAS DUBOIS - VCC 03:50:26:00 00:14:10:007 5
152 10027296790 X AJINCAS Lucas ASSOCIATION CYCLISTE DU LEV 03:50:26:00 00:14:10:007 6
251 10014115504 X PESCHGES Marcel TEAM EMBRACE THE WORLD 03:50:26:00 00:14:10:007 7
256 10008725334 MARCEL Fröse TEAM EMBRACE THE WORLD 03:50:26:00 00:14:10:007 8
66 10009778994 CUETO Juan José INTEJA DCT 03:50:26:00 00:14:10:007 9
183 10026597380 X DELOUMEAUX Jérémy JEUNESSE CYCLISTE DES ABYM 03:50:26:00 00:14:10:008 0
241 10010643914 X KELLY Joshua AIR ANTILLES BARBADOS 03:50:26:00 00:14:10:008 1
121 10011208736 BOYEAU Fendley UNI SPORT LAMENTINOIS 03:50:26:00 00:14:10:008 2
186 10016211310 X LORQUIN Kénan JEUNESSE CYCLISTE DES ABYM 03:50:26:00 00:14:10:008 3
174 10014075488 DAMASE Jean-Louis EXCELSIOR 03:50:26:00 00:14:10:008 4
205 10008960558 ROUSSEAU Jayson VELO CLUB DE GRAND CASE 03:50:26:00 00:14:10:008 5
235 10026351042 LARGITTE COPPET Kévin SELECTION MARTINIQUE 03:50:26:00 00:14:10:008 6
76 10012048592 ROULON Fwanswajino RAYON D ARGENT 03:50:26:00 00:14:10:008 7
254 10011805284 NIESING T imo TEAM EMBRACE THE WORLD 03:50:26:00 00:14:10:008 8
143 10004591316 HAMLET Freddy TEAM CCD 03:50:26:00 00:14:10:008 9
74 10008149192 MARIMOUTOU Jean Marie RAYON D ARGENT 03:54:53:00 00:18:37:009 0
72 10028013075 GIBLACA Fabrice RAYON D ARGENT 03:54:53:00 00:18:37:009 1
196 10025421458 JEANNE Wladimir USR VELO STPA 03:54:53:00 00:18:37:009 2
195 10006050558 ATTAUD Frédéric USR VELO STPA 03:54:53:00 00:18:37:009 3
166 10014666178 RELMY Widjy TEAM NICOLAS DUBOIS - VCC 03:54:53:00 00:18:37:009 4
75 10014664764 LEREMON Gimmy RAYON D ARGENT 03:55:00:00 00:18:44:009 5
93 10013556035 BARNY Naïddjy VELO DU CENTRE ET DE LA CAR 04:00:24:00 00:24:08:009 6
246 10019931108 WYMAN Christopher AIR ANTILLES BARBADOS 04:00:24:00 00:24:08:009 7
224 10077330202 TURPIN Olivier GWADA BIKERS 118 04:02:26:00 00:26:10:009 8
253 10046184916 DUFFNER Stephan TEAM EMBRACE THE WORLD 04:02:26:00 00:26:10:009 9
172 10025492691 X DAMAS Anthony EXCELSIOR 04:02:26:00 00:26:10:001 00
132 10081729655 NERE Nicolas UNION VELOCIPEDIQUE DE MARI 04:04:08:00 00:27:52:001 01
113 10027596682 X LARGITTE Jeiël CSCA PROPRETE 2000 04:12:35:00 00:36:19:001 02
36 10026878882 X POLIPHEME Anthony VELO CLUB SAINTANNAIS 04:16:25:00 00:40:09:001 03
53 10013555126 MATOU Kenny UNION VELOCIPEDIQUE DU NORD 04:16:25:00 00:40:09:001 04
64 10007419975 AGUIRRE Jose INTEJA DCT 04:16:25:00 00:40:09:001 05

CLASSEMENT GENERAL INDIVIDUEL AU TEMPS A l'issue de l'étape n° 3 (06/08/18) Sponsor : REGION GUADELOUPE
Résultats officiels Moy/Km : 41,972 km/h
TOUR DE LA GUADELOUPE 2018 68è édition - U.C.I Classe ME 2.2 430,700 km parcourus


1 5 GUICHARD Mickael TEAM PRO IMMO NICOLAS ROUX 10010100007 10:15:42:00 __:__:__
2 146 CARENE Boris TEAM CCD 10076908856 10:16:33:00 00:00:51
3 125 SALINAS DUQUE Jhonathan UNI SPORT LAMENTINOIS 10027697524 10:17:02:00 00:01:20
4 245 LANGLOIS Bruno AIR ANTILLES BARBADOS 10002226940 10:17:03:00 00:01:21
5 144 DIAZ ESPITIA José Léonel TEAM CCD 10010983212 10:17:08:00 00:01:26
6 221 NAVA Jhon GWADA BIKERS 118 10002879870 10:17:15:00 00:01:33
7 61 MANCEBO Francisco INTEJA DCT 10054655945 10:17:21:00 00:01:39
8 124 RODRIGUEZ GALINDO Mick UNI SPORT LAMENTINOIS 10081045605 10:17:25:00 00:01:43
9 62 MILAN Diego INTEJA DCT 10003120047 10:17:26:00 00:01:44
10 1 FOURNET FAYARD Sebastien TEAM PRO IMMO NICOLAS ROUX 10005890510 10:17:35:00 00:01:53
11 65 GUERRERO BONITA Pablo INTEJA DCT 10011231873 10:17:41:00 00:01:59
12 236 ROSEAU Willy SELECTION MARTINIQUE 10006527676 10:17:55:00 00:02:13
13 4 ALMEIDA Pierre TEAM PRO IMMO NICOLAS ROUX 10012064659 10:17:59:00 00:02:17
14 6 CHASSAGNE Thomas TEAM PRO IMMO NICOLAS ROUX 10014768232 10:18:00:00 00:02:18
15 203 RIVERA GUERRERO Ever Alexander VELO CLUB DE GRAND CASE 10042724844 10:18:02:00 00:02:20
16 161 SABLON Luis TEAM NICOLAS DUBOIS - VCC 10005566770 10:18:15:00 00:02:33
17 204 PARRA SUAREZ Hernan Dario VELO CLUB DE GRAND CASE 10010167604 10:18:20:00 00:02:38
18 234 SYLVESTRE Yolan SELECTION MARTINIQUE 10010163863 10:19:16:00 00:03:34
19 11 X GRANIGAN Noah CCB FOUNDATION - SICLERI 10009353612 10:19:22:00 00:03:40
20 171 BLONDIN Grégory EXCELSIOR 10012701526 10:19:54:00 00:04:12
21 115 X PHAETON Collins CSCA PROPRETE 2000 10027669333 10:20:29:00 00:04:47
22 94 MEDINA Raphael VELO DU CENTRE ET DE LA CAR 10080990536 10:20:29:00 00:04:47
23 22 X LAVIOLETTE Loic KARUKERA ASSAINISSEMENT P 10015343663 10:20:44:00 00:05:02
24 231 EUSTACHE Cédric SELECTION MARTINIQUE 10007446550 10:20:46:00 00:05:04
25 145 SANCHEZ ANZOLA Edwin TEAM CCD 10081059446 10:20:52:00 00:05:10
26 223 KARIOUA Kévin GWADA BIKERS 118 10015344572 10:21:06:00 00:05:24
27 133 KWIATKOWSKI Grzegorz Jan UNION VELOCIPEDIQUE DE MAR 10026612639 10:21:18:00 00:05:36
28 111 X GERAN Ronald CSCA PROPRETE 2000 10016211108 10:21:46:00 00:06:04
29 162 VARGAS Freddy TEAM NICOLAS DUBOIS - VCC 10074497701 10:21:58:00 00:06:16
30 232 STANISLAS Mickaël SELECTION MARTINIQUE 10015342754 10:22:08:00 00:06:26
31 175 LOCATIN CEDRIC EXCELSIOR 10015343360 10:22:40:00 00:06:58
32 141 CHEVALIER MARONI Damien TEAM CCD 10013164496 10:23:07:00 00:07:25
33 222 FUENTES Yorman GWADA BIKERS 118 10011791039 10:23:09:00 00:07:27
34 2 THOMASSON Nicolas TEAM PRO IMMO NICOLAS ROUX 10011940781 10:23:28:00 00:07:46
35 51 BAROLIN Keran UNION VELOCIPEDIQUE DU NOR 10007531729 10:23:46:00 00:08:04
36 52 LEGRAND Carl UNION VELOCIPEDIQUE DU NOR 10012700314 10:23:51:00 00:08:09
37 182 THEOPHILE Laury JEUNESSE CYCLISTE DES ABY 10025073773 10:23:55:00 00:08:13
38 142 MARTINEZ URENA Jorge Luis TEAM CCD 10064540548 10:24:05:00 00:08:23
39 126 PRUNEAU Jordy UNI SPORT LAMENTINOIS 10014665572 10:24:06:00 00:08:24
40 261 X MOINE Quentin BOURG EN BRESS 10015726411 10:24:15:00 00:08:33
41 3 BONNET Pierre TEAM PRO IMMO NICOLAS ROUX 10009571052 10:24:18:00 00:08:36
42 123 ERRIN Grégory UNI SPORT LAMENTINOIS 10014075690 10:24:22:00 00:08:40
43 21 LUTIN Larry KARUKERA ASSAINISSEMENT P 10014665471 10:25:19:00 00:09:37
44 202 TURPIN Ludovic VELO CLUB DE GRAND CASE 10002250683 10:26:09:00 00:10:27
45 193 LAROCHELLE Stephane USR VELO STPA 10027662562 10:26:55:00 00:11:13
46 63 SARABIA Ignacio INTEJA DCT 10002689308 10:26:56:00 00:11:14
47 252 KRUSCHEWSKI Fabian TEAM EMBRACE THE WORLD 10014542304 10:26:59:00 00:11:17
48 26 VINETOT Romain KARUKERA ASSAINISSEMENT P 10014666279 10:27:06:00 00:11:24
49 32 DURO Kelian VELO CLUB SAINTANNAIS 10013166318 10:27:15:00 00:11:33
50 116 ROUSSEAU Giovanny CSCA PROPRETE 2000 10073678049 10:27:20:00 00:11:38
51 201 CURIER Olivier VELO CLUB DE GRAND CASE 10007366122 10:27:34:00 00:11:52
52 176 THEOBALD Frédéric EXCELSIOR 10004666084 10:27:43:00 00:12:01
53 23 X MAGDELEINE Melvin KARUKERA ASSAINISSEMENT P 10016210300 10:27:48:00 00:12:06
54 164 CORNELIE Fabrice TEAM NICOLAS DUBOIS - VCC 10006566375 10:28:46:00 00:13:04
55 25 RAMOTHE Cedric KARUKERA ASSAINISSEMENT P 10006566274 10:28:55:00 00:13:13
56 191 ALIDOR Adrien USR VELO STPA 10012045865 10:33:05:00 00:17:23
57 112 JUDITH Marvin CSCA PROPRETE 2000 10014075791 10:35:37:00 00:19:55
58 192 TARANNE Teddy USR VELO STPA 10014075892 10:35:43:00 00:20:01
59 264 X JASSERAND Valentin BOURG EN BRESS 10015290315 10:36:14:00 00:20:32
60 14 COLLINS Patrick CCB FOUNDATION - SICLERI 10015484214 10:38:05:00 00:22:23
61 183 X DELOUMEAUX Jérémy JEUNESSE CYCLISTE DES ABY 10026597380 10:39:08:00 00:23:26
62 233 RAGOT Thierry SELECTION MARTINIQUE 10014076603 10:40:29:00 00:24:47
63 174 DAMASE Jean-Louis EXCELSIOR 10014075488 10:40:35:00 00:24:53
64 76 ROULON Fwanswajino RAYON D ARGENT 10012048592 10:40:36:00 00:24:54
65 91 LANCLUME Jules VELO DU CENTRE ET DE LA CAR 10007902551 10:40:38:00 00:24:56
66 151 SUARES Gilles ASSOCIATION CYCLISTE DU LEV 10052756260 10:40:41:00 00:24:59
67 121 BOYEAU Fendley UNI SPORT LAMENTINOIS 10011208736 10:40:46:00 00:25:04
68 33 NACTO Jordan VELO CLUB SAINTANNAIS 10010164065 10:41:05:00 00:25:23
69 185 X LOUISOR Alrick JEUNESSE CYCLISTE DES ABY 10016209690 10:41:17:00 00:25:35
70 181 LANDRE Teddy JEUNESSE CYCLISTE DES ABY 10005551414 10:41:41:00 00:25:59
71 122 CLARICO Mickael UNI SPORT LAMENTINOIS 10065631392 10:41:42:00 00:26:00
72 35 X DURO Nicolas VELO CLUB SAINTANNAIS 10027319123 10:42:03:00 00:26:21
73 24 JOACHIM Steevy KARUKERA ASSAINISSEMENT P 10014666077 10:45:21:00 00:29:39
74 173 X BORDEE Gaël EXCELSIOR 10016210195 10:46:16:00 00:30:34
75 95 X LEOGANE Feliscyo VELO DU CENTRE ET DE LA CAR 10016209791 10:49:15:00 00:33:33
76 93 BARNY Naïddjy VELO DU CENTRE ET DE LA CAR 10013556035 10:49:59:00 00:34:17
77 241 X KELLY Joshua AIR ANTILLES BARBADOS 10010643914 10:53:53:00 00:38:11
78 235 LARGITTE COPPET Kévin SELECTION MARTINIQUE 10026351042 10:54:35:00 00:38:53
79 143 HAMLET Freddy TEAM CCD 10004591316 10:55:46:00 00:40:04
80 152 X AJINCAS Lucas ASSOCIATION CYCLISTE DU LEV 10027296790 10:56:02:00 00:40:20
81 253 DUFFNER Stephan TEAM EMBRACE THE WORLD 10046184916 10:57:42:00 00:42:00
82 256 MARCEL Fröse TEAM EMBRACE THE WORLD 10008725334 10:57:47:00 00:42:05
83 186 X LORQUIN Kénan JEUNESSE CYCLISTE DES ABY 10016211310 10:57:51:00 00:42:09
84 184 X DABRION Rogan JEUNESSE CYCLISTE DES ABY 10016210906 10:58:40:00 00:42:58
85 196 JEANNE Wladimir USR VELO STPA 10025421458 10:59:01:00 00:43:19
86 251 X PESCHGES Marcel TEAM EMBRACE THE WORLD 10014115504 10:59:21:00 00:43:39
87 254 NIESING T imo TEAM EMBRACE THE WORLD1 0011805284 10:59:58:00 00:44:16
88 75 LEREMON Gimmy RAYON D ARGENT 10014664764 11:00:03:00 00:44:21
89 72 GIBLACA Fabrice RAYON D ARGENT 10028013075 11:00:06:00 00:44:24
90 66 CUETO Juan José INTEJA DCT 10009778994 11:00:13:00 00:44:31
91 13 X HUMPHREYS Thomas CCB FOUNDATION - SICLERI 10064521754 11:02:08:00 00:46:26
92 165 X GENE Meving TEAM NICOLAS DUBOIS - VCC 10026332652 11:04:17:00 00:48:35
93 166 RELMY Widjy TEAM NICOLAS DUBOIS - VCC 10014666178 11:04:38:00 00:48:56
94 263 LEMLER Tony BOURG EN BRESS 10025835326 11:04:47:00 00:49:05
95 205 ROUSSEAU Jayson VELO CLUB DE GRAND CASE 10008960558 11:05:37:00 00:49:55
96 64 AGUIRRE Jose INTEJA DCT 10007419975 11:07:11:00 00:51:29
97 172 X DAMAS Anthony EXCELSIOR 10025492691 11:12:27:00 00:56:45
98 74 MARIMOUTOU Jean Marie RAYON D ARGENT 10008149192 11:18:14:00 01:02:32
99 195 ATTAUD Frédéric USR VELO STPA 10006050558 11:18:31:00 01:02:49
100 246 WYMAN Christopher AIR ANTILLES BARBADOS 10019931108 11:22:00:00 01:06:18
101 53 MATOU Kenny UNION VELOCIPEDIQUE DU NOR 10013555126 11:28:46:00 01:13:04
102 224 TURPIN Olivier GWADA BIKERS 118 10077330202 11:31:13:00 01:15:31
103 132 NERE Nicolas UNION VELOCIPEDIQUE DE MAR 10081729655 11:32:03:00 01:16:21
104 113 X LARGITTE Jeiël CSCA PROPRETE 2000 10027596682 11:34:33:00 01:18:51
105 36 X POLIPHEME Anthony VELO CLUB SAINTANNAIS 10026878882 11:42:26:00 01:26:44